sensor_id;sensor_type;location;lat;lon;timestamp;P1;durP1;ratioP1;P2;durP2;ratioP2
55497;SDS011;41357;52.806;18.268;2022-07-18T00:00:49;6.78;;;3.72;;
55497;SDS011;41357;52.806;18.268;2022-07-18T00:03:15;11.50;;;4.22;;
55497;SDS011;41357;52.806;18.268;2022-07-18T00:05:42;6.57;;;3.55;;
55497;SDS011;41357;52.806;18.268;2022-07-18T00:08:08;10.05;;;3.88;;
55497;SDS011;41357;52.806;18.268;2022-07-18T00:10:34;11.25;;;4.15;;
55497;SDS011;41357;52.806;18.268;2022-07-18T00:13:00;6.25;;;3.50;;
55497;SDS011;41357;52.806;18.268;2022-07-18T00:15:26;8.77;;;3.97;;
55497;SDS011;41357;52.806;18.268;2022-07-18T00:17:52;9.93;;;4.00;;
55497;SDS011;41357;52.806;18.268;2022-07-18T00:20:19;9.80;;;3.75;;
55497;SDS011;41357;52.806;18.268;2022-07-18T00:22:45;8.50;;;3.60;;
55497;SDS011;41357;52.806;18.268;2022-07-18T00:25:11;9.45;;;3.75;;
55497;SDS011;41357;52.806;18.268;2022-07-18T00:27:37;6.18;;;3.45;;
55497;SDS011;41357;52.806;18.268;2022-07-18T00:30:03;8.05;;;3.70;;
55497;SDS011;41357;52.806;18.268;2022-07-18T00:32:30;11.48;;;4.05;;
55497;SDS011;41357;52.806;18.268;2022-07-18T00:34:56;8.90;;;4.18;;
55497;SDS011;41357;52.806;18.268;2022-07-18T00:37:22;6.45;;;4.22;;
55497;SDS011;41357;52.806;18.268;2022-07-18T00:39:49;6.50;;;3.72;;
55497;SDS011;41357;52.806;18.268;2022-07-18T00:42:15;7.95;;;3.97;;
55497;SDS011;41357;52.806;18.268;2022-07-18T00:44:41;7.00;;;3.80;;
55497;SDS011;41357;52.806;18.268;2022-07-18T00:47:07;9.77;;;5.10;;
55497;SDS011;41357;52.806;18.268;2022-07-18T00:49:34;8.32;;;4.50;;
55497;SDS011;41357;52.806;18.268;2022-07-18T00:52:00;5.82;;;3.90;;
55497;SDS011;41357;52.806;18.268;2022-07-18T00:54:26;13.40;;;4.32;;
55497;SDS011;41357;52.806;18.268;2022-07-18T00:56:52;9.82;;;4.47;;
55497;SDS011;41357;52.806;18.268;2022-07-18T00:59:19;9.32;;;4.55;;
55497;SDS011;41357;52.806;18.268;2022-07-18T01:01:46;10.23;;;4.03;;
55497;SDS011;41357;52.806;18.268;2022-07-18T01:04:14;6.95;;;4.55;;
55497;SDS011;41357;52.806;18.268;2022-07-18T01:06:40;8.10;;;4.35;;
55497;SDS011;41357;52.806;18.268;2022-07-18T01:09:07;8.38;;;4.57;;
55497;SDS011;41357;52.806;18.268;2022-07-18T01:11:33;9.45;;;4.35;;
55497;SDS011;41357;52.806;18.268;2022-07-18T01:14:01;7.72;;;4.00;;
55497;SDS011;41357;52.806;18.268;2022-07-18T01:16:27;7.55;;;4.18;;
55497;SDS011;41357;52.806;18.268;2022-07-18T01:18:53;11.43;;;4.75;;
55497;SDS011;41357;52.806;18.268;2022-07-18T01:21:20;8.70;;;4.30;;
55497;SDS011;41357;52.806;18.268;2022-07-18T01:23:46;8.05;;;4.75;;
55497;SDS011;41357;52.806;18.268;2022-07-18T01:26:12;8.63;;;4.10;;
55497;SDS011;41357;52.806;18.268;2022-07-18T01:28:39;10.50;;;4.07;;
55497;SDS011;41357;52.806;18.268;2022-07-18T01:31:05;10.80;;;4.18;;
55497;SDS011;41357;52.806;18.268;2022-07-18T01:33:32;11.80;;;4.07;;
55497;SDS011;41357;52.806;18.268;2022-07-18T01:36:02;8.02;;;4.07;;
55497;SDS011;41357;52.806;18.268;2022-07-18T01:38:29;10.15;;;3.78;;
55497;SDS011;41357;52.806;18.268;2022-07-18T01:40:55;8.93;;;4.32;;
55497;SDS011;41357;52.806;18.268;2022-07-18T01:43:22;9.55;;;3.08;;
55497;SDS011;41357;52.806;18.268;2022-07-18T01:45:48;10.32;;;3.75;;
55497;SDS011;41357;52.806;18.268;2022-07-18T01:48:15;10.73;;;3.97;;
55497;SDS011;41357;52.806;18.268;2022-07-18T01:50:41;9.77;;;3.38;;
55497;SDS011;41357;52.806;18.268;2022-07-18T01:53:07;8.65;;;4.18;;
55497;SDS011;41357;52.806;18.268;2022-07-18T01:55:33;7.72;;;3.47;;
55497;SDS011;41357;52.806;18.268;2022-07-18T01:57:59;8.63;;;3.38;;
55497;SDS011;41357;52.806;18.268;2022-07-18T02:00:26;8.55;;;3.63;;
55497;SDS011;41357;52.806;18.268;2022-07-18T02:02:52;8.18;;;3.30;;
55497;SDS011;41357;52.806;18.268;2022-07-18T02:05:18;7.47;;;3.13;;
55497;SDS011;41357;52.806;18.268;2022-07-18T02:07:44;11.43;;;3.67;;
55497;SDS011;41357;52.806;18.268;2022-07-18T02:10:13;10.23;;;3.00;;
55497;SDS011;41357;52.806;18.268;2022-07-18T02:12:39;7.70;;;3.25;;
55497;SDS011;41357;52.806;18.268;2022-07-18T02:15:06;13.68;;;3.53;;
55497;SDS011;41357;52.806;18.268;2022-07-18T02:17:33;8.88;;;3.03;;
55497;SDS011;41357;52.806;18.268;2022-07-18T02:19:59;5.70;;;3.38;;
55497;SDS011;41357;52.806;18.268;2022-07-18T02:22:26;11.30;;;3.72;;
55497;SDS011;41357;52.806;18.268;2022-07-18T02:24:52;7.47;;;3.03;;
55497;SDS011;41357;52.806;18.268;2022-07-18T02:27:18;8.07;;;3.42;;
55497;SDS011;41357;52.806;18.268;2022-07-18T02:29:45;4.43;;;2.75;;
55497;SDS011;41357;52.806;18.268;2022-07-18T02:32:11;8.60;;;2.83;;
55497;SDS011;41357;52.806;18.268;2022-07-18T02:34:37;6.07;;;2.85;;
55497;SDS011;41357;52.806;18.268;2022-07-18T02:37:04;5.70;;;2.38;;
55497;SDS011;41357;52.806;18.268;2022-07-18T02:39:30;11.70;;;2.78;;
55497;SDS011;41357;52.806;18.268;2022-07-18T02:41:56;6.72;;;2.47;;
55497;SDS011;41357;52.806;18.268;2022-07-18T02:44:22;9.82;;;3.38;;
55497;SDS011;41357;52.806;18.268;2022-07-18T02:46:49;10.13;;;2.70;;
55497;SDS011;41357;52.806;18.268;2022-07-18T02:49:15;4.50;;;2.70;;
55497;SDS011;41357;52.806;18.268;2022-07-18T02:54:20;4.85;;;2.28;;
55497;SDS011;41357;52.806;18.268;2022-07-18T02:56:46;7.03;;;2.70;;
55497;SDS011;41357;52.806;18.268;2022-07-18T02:59:12;5.60;;;2.50;;
55497;SDS011;41357;52.806;18.268;2022-07-18T03:01:38;4.82;;;2.78;;
55497;SDS011;41357;52.806;18.268;2022-07-18T03:04:04;9.10;;;2.95;;
55497;SDS011;41357;52.806;18.268;2022-07-18T03:06:31;12.20;;;3.17;;
55497;SDS011;41357;52.806;18.268;2022-07-18T03:08:57;9.10;;;3.45;;
55497;SDS011;41357;52.806;18.268;2022-07-18T03:11:23;9.07;;;3.08;;
55497;SDS011;41357;52.806;18.268;2022-07-18T03:13:49;9.30;;;3.13;;
55497;SDS011;41357;52.806;18.268;2022-07-18T03:16:15;10.00;;;3.38;;
55497;SDS011;41357;52.806;18.268;2022-07-18T03:18:41;10.43;;;3.60;;
55497;SDS011;41357;52.806;18.268;2022-07-18T03:21:08;7.63;;;3.00;;
55497;SDS011;41357;52.806;18.268;2022-07-18T03:23:34;14.32;;;4.13;;
55497;SDS011;41357;52.806;18.268;2022-07-18T03:26:00;7.68;;;3.30;;
55497;SDS011;41357;52.806;18.268;2022-07-18T03:28:26;9.48;;;2.67;;
55497;SDS011;41357;52.806;18.268;2022-07-18T03:30:52;7.47;;;3.22;;
55497;SDS011;41357;52.806;18.268;2022-07-18T03:33:19;14.60;;;3.65;;
55497;SDS011;41357;52.806;18.268;2022-07-18T03:35:45;5.88;;;2.63;;
55497;SDS011;41357;52.806;18.268;2022-07-18T03:38:11;8.63;;;3.47;;
55497;SDS011;41357;52.806;18.268;2022-07-18T03:40:37;20.20;;;4.13;;
55497;SDS011;41357;52.806;18.268;2022-07-18T03:43:04;10.07;;;3.33;;
55497;SDS011;41357;52.806;18.268;2022-07-18T03:45:30;10.35;;;3.67;;
55497;SDS011;41357;52.806;18.268;2022-07-18T03:47:56;6.93;;;3.40;;
55497;SDS011;41357;52.806;18.268;2022-07-18T03:50:22;9.27;;;3.28;;
55497;SDS011;41357;52.806;18.268;2022-07-18T03:52:48;7.40;;;2.88;;
55497;SDS011;41357;52.806;18.268;2022-07-18T03:55:15;5.88;;;2.80;;
55497;SDS011;41357;52.806;18.268;2022-07-18T03:57:41;12.65;;;3.72;;
55497;SDS011;41357;52.806;18.268;2022-07-18T04:00:07;11.85;;;3.63;;
55497;SDS011;41357;52.806;18.268;2022-07-18T04:02:44;11.10;;;3.03;;
55497;SDS011;41357;52.806;18.268;2022-07-18T04:05:11;12.25;;;3.90;;
55497;SDS011;41357;52.806;18.268;2022-07-18T04:07:37;9.80;;;3.67;;
55497;SDS011;41357;52.806;18.268;2022-07-18T04:10:04;7.60;;;3.42;;
55497;SDS011;41357;52.806;18.268;2022-07-18T04:12:30;7.13;;;3.13;;
55497;SDS011;41357;52.806;18.268;2022-07-18T04:14:57;9.63;;;2.97;;
55497;SDS011;41357;52.806;18.268;2022-07-18T04:17:24;7.40;;;2.90;;
55497;SDS011;41357;52.806;18.268;2022-07-18T04:19:51;7.60;;;3.42;;
55497;SDS011;41357;52.806;18.268;2022-07-18T04:22:17;5.70;;;2.50;;
55497;SDS011;41357;52.806;18.268;2022-07-18T04:24:43;10.63;;;2.78;;
55497;SDS011;41357;52.806;18.268;2022-07-18T04:27:10;7.28;;;2.70;;
55497;SDS011;41357;52.806;18.268;2022-07-18T04:29:37;5.75;;;2.53;;
55497;SDS011;41357;52.806;18.268;2022-07-18T04:32:03;4.75;;;1.95;;
55497;SDS011;41357;52.806;18.268;2022-07-18T04:34:29;10.90;;;3.75;;
55497;SDS011;41357;52.806;18.268;2022-07-18T04:36:55;6.18;;;2.78;;
55497;SDS011;41357;52.806;18.268;2022-07-18T04:39:22;8.48;;;2.55;;
55497;SDS011;41357;52.806;18.268;2022-07-18T04:41:48;9.07;;;2.72;;
55497;SDS011;41357;52.806;18.268;2022-07-18T04:44:14;5.40;;;1.90;;
55497;SDS011;41357;52.806;18.268;2022-07-18T04:46:40;9.07;;;2.38;;
55497;SDS011;41357;52.806;18.268;2022-07-18T04:49:06;3.80;;;2.28;;
55497;SDS011;41357;52.806;18.268;2022-07-18T04:51:32;4.32;;;1.90;;
55497;SDS011;41357;52.806;18.268;2022-07-18T04:53:59;5.50;;;2.05;;
55497;SDS011;41357;52.806;18.268;2022-07-18T04:56:25;8.00;;;2.25;;
55497;SDS011;41357;52.806;18.268;2022-07-18T04:58:51;8.10;;;2.20;;
55497;SDS011;41357;52.806;18.268;2022-07-18T05:01:17;9.90;;;2.33;;
55497;SDS011;41357;52.806;18.268;2022-07-18T05:03:43;4.70;;;2.00;;
55497;SDS011;41357;52.806;18.268;2022-07-18T05:06:09;4.97;;;2.20;;
55497;SDS011;41357;52.806;18.268;2022-07-18T05:08:35;7.85;;;2.10;;
55497;SDS011;41357;52.806;18.268;2022-07-18T05:11:02;5.38;;;1.85;;
55497;SDS011;41357;52.806;18.268;2022-07-18T05:13:28;9.50;;;2.45;;
55497;SDS011;41357;52.806;18.268;2022-07-18T05:15:54;5.03;;;2.90;;
55497;SDS011;41357;52.806;18.268;2022-07-18T05:18:20;4.60;;;2.22;;
55497;SDS011;41357;52.806;18.268;2022-07-18T05:20:46;8.93;;;2.33;;
55497;SDS011;41357;52.806;18.268;2022-07-18T05:23:13;6.38;;;2.47;;
55497;SDS011;41357;52.806;18.268;2022-07-18T05:25:40;6.50;;;2.10;;
55497;SDS011;41357;52.806;18.268;2022-07-18T05:28:06;4.82;;;1.92;;
55497;SDS011;41357;52.806;18.268;2022-07-18T05:30:32;4.85;;;2.20;;
55497;SDS011;41357;52.806;18.268;2022-07-18T05:32:59;6.95;;;2.35;;
55497;SDS011;41357;52.806;18.268;2022-07-18T05:35:25;3.42;;;2.30;;
55497;SDS011;41357;52.806;18.268;2022-07-18T05:37:51;5.97;;;2.35;;
55497;SDS011;41357;52.806;18.268;2022-07-18T05:40:17;7.35;;;2.67;;
55497;SDS011;41357;52.806;18.268;2022-07-18T05:42:43;4.75;;;2.20;;
55497;SDS011;41357;52.806;18.268;2022-07-18T05:45:11;6.65;;;2.53;;
55497;SDS011;41357;52.806;18.268;2022-07-18T05:47:37;8.70;;;2.92;;
55497;SDS011;41357;52.806;18.268;2022-07-18T05:50:03;7.10;;;3.08;;
55497;SDS011;41357;52.806;18.268;2022-07-18T05:52:30;6.22;;;2.58;;
55497;SDS011;41357;52.806;18.268;2022-07-18T05:54:57;6.53;;;2.00;;
55497;SDS011;41357;52.806;18.268;2022-07-18T05:57:23;6.03;;;2.78;;
55497;SDS011;41357;52.806;18.268;2022-07-18T05:59:49;5.53;;;2.22;;
55497;SDS011;41357;52.806;18.268;2022-07-18T06:02:15;9.37;;;2.27;;
55497;SDS011;41357;52.806;18.268;2022-07-18T06:04:41;5.93;;;2.35;;
55497;SDS011;41357;52.806;18.268;2022-07-18T06:07:07;7.60;;;2.20;;
55497;SDS011;41357;52.806;18.268;2022-07-18T06:09:34;4.70;;;2.00;;
55497;SDS011;41357;52.806;18.268;2022-07-18T06:12:02;6.10;;;1.88;;
55497;SDS011;41357;52.806;18.268;2022-07-18T06:14:29;8.52;;;2.33;;
55497;SDS011;41357;52.806;18.268;2022-07-18T06:16:55;7.25;;;2.45;;
55497;SDS011;41357;52.806;18.268;2022-07-18T06:19:21;3.08;;;1.63;;
55497;SDS011;41357;52.806;18.268;2022-07-18T06:21:48;3.47;;;1.80;;
55497;SDS011;41357;52.806;18.268;2022-07-18T06:24:14;6.45;;;2.03;;
55497;SDS011;41357;52.806;18.268;2022-07-18T06:26:40;8.85;;;1.60;;
55497;SDS011;41357;52.806;18.268;2022-07-18T06:29:06;3.22;;;1.50;;
55497;SDS011;41357;52.806;18.268;2022-07-18T06:31:32;7.90;;;1.83;;
55497;SDS011;41357;52.806;18.268;2022-07-18T06:33:58;4.07;;;1.80;;
55497;SDS011;41357;52.806;18.268;2022-07-18T06:36:24;4.70;;;1.77;;
55497;SDS011;41357;52.806;18.268;2022-07-18T06:38:51;5.65;;;1.52;;
55497;SDS011;41357;52.806;18.268;2022-07-18T06:41:17;3.60;;;1.67;;
55497;SDS011;41357;52.806;18.268;2022-07-18T06:43:44;7.65;;;1.60;;
55497;SDS011;41357;52.806;18.268;2022-07-18T06:46:10;4.55;;;1.60;;
55497;SDS011;41357;52.806;18.268;2022-07-18T06:48:37;6.53;;;1.77;;
55497;SDS011;41357;52.806;18.268;2022-07-18T06:51:03;4.25;;;2.45;;
55497;SDS011;41357;52.806;18.268;2022-07-18T06:53:30;6.85;;;1.42;;
55497;SDS011;41357;52.806;18.268;2022-07-18T06:55:56;7.35;;;1.58;;
55497;SDS011;41357;52.806;18.268;2022-07-18T06:58:23;3.85;;;1.75;;
55497;SDS011;41357;52.806;18.268;2022-07-18T07:00:49;3.05;;;1.70;;
55497;SDS011;41357;52.806;18.268;2022-07-18T07:03:16;5.82;;;1.83;;
55497;SDS011;41357;52.806;18.268;2022-07-18T07:05:42;7.22;;;1.70;;
55497;SDS011;41357;52.806;18.268;2022-07-18T07:08:08;6.85;;;1.58;;
55497;SDS011;41357;52.806;18.268;2022-07-18T07:10:34;5.82;;;2.33;;
55497;SDS011;41357;52.806;18.268;2022-07-18T07:13:00;7.43;;;1.65;;
55497;SDS011;41357;52.806;18.268;2022-07-18T07:15:27;8.68;;;1.70;;
55497;SDS011;41357;52.806;18.268;2022-07-18T07:17:53;9.02;;;1.80;;
55497;SDS011;41357;52.806;18.268;2022-07-18T07:20:19;8.98;;;2.13;;
55497;SDS011;41357;52.806;18.268;2022-07-18T07:22:55;5.90;;;1.63;;
55497;SDS011;41357;52.806;18.268;2022-07-18T07:25:22;8.90;;;2.30;;
55497;SDS011;41357;52.806;18.268;2022-07-18T07:27:49;4.80;;;1.80;;
55497;SDS011;41357;52.806;18.268;2022-07-18T07:30:15;5.30;;;1.83;;
55497;SDS011;41357;52.806;18.268;2022-07-18T07:32:42;12.82;;;2.90;;
55497;SDS011;41357;52.806;18.268;2022-07-18T07:35:09;6.97;;;2.00;;
55497;SDS011;41357;52.806;18.268;2022-07-18T07:37:42;6.15;;;2.17;;
55497;SDS011;41357;52.806;18.268;2022-07-18T07:40:08;5.80;;;2.05;;
55497;SDS011;41357;52.806;18.268;2022-07-18T07:42:35;7.72;;;1.90;;
55497;SDS011;41357;52.806;18.268;2022-07-18T07:45:01;4.80;;;1.80;;
55497;SDS011;41357;52.806;18.268;2022-07-18T07:47:27;4.97;;;2.58;;
55497;SDS011;41357;52.806;18.268;2022-07-18T07:49:57;4.05;;;2.03;;
55497;SDS011;41357;52.806;18.268;2022-07-18T07:52:23;3.55;;;1.65;;
55497;SDS011;41357;52.806;18.268;2022-07-18T07:54:52;5.63;;;2.25;;
55497;SDS011;41357;52.806;18.268;2022-07-18T07:57:18;3.53;;;1.42;;
55497;SDS011;41357;52.806;18.268;2022-07-18T07:59:45;2.65;;;1.42;;
55497;SDS011;41357;52.806;18.268;2022-07-18T08:02:11;6.00;;;1.92;;
55497;SDS011;41357;52.806;18.268;2022-07-18T08:04:38;5.35;;;2.22;;
55497;SDS011;41357;52.806;18.268;2022-07-18T08:07:04;3.58;;;1.75;;
55497;SDS011;41357;52.806;18.268;2022-07-18T08:09:30;3.53;;;2.13;;
55497;SDS011;41357;52.806;18.268;2022-07-18T08:11:56;3.83;;;2.00;;
55497;SDS011;41357;52.806;18.268;2022-07-18T08:14:22;7.65;;;2.08;;
55497;SDS011;41357;52.806;18.268;2022-07-18T08:16:49;7.75;;;1.95;;
55497;SDS011;41357;52.806;18.268;2022-07-18T08:19:15;7.45;;;2.47;;
55497;SDS011;41357;52.806;18.268;2022-07-18T08:21:41;6.45;;;2.15;;
55497;SDS011;41357;52.806;18.268;2022-07-18T08:24:07;5.88;;;2.30;;
55497;SDS011;41357;52.806;18.268;2022-07-18T08:26:33;6.32;;;2.38;;
55497;SDS011;41357;52.806;18.268;2022-07-18T08:29:04;7.38;;;2.10;;
55497;SDS011;41357;52.806;18.268;2022-07-18T08:31:30;7.40;;;2.05;;
55497;SDS011;41357;52.806;18.268;2022-07-18T08:33:56;4.68;;;1.80;;
55497;SDS011;41357;52.806;18.268;2022-07-18T08:36:22;2.72;;;1.60;;
55497;SDS011;41357;52.806;18.268;2022-07-18T08:38:49;5.32;;;2.75;;
55497;SDS011;41357;52.806;18.268;2022-07-18T08:41:16;3.60;;;1.90;;
55497;SDS011;41357;52.806;18.268;2022-07-18T08:43:45;4.43;;;1.90;;
55497;SDS011;41357;52.806;18.268;2022-07-18T08:46:12;2.63;;;1.50;;
55497;SDS011;41357;52.806;18.268;2022-07-18T08:48:38;7.07;;;2.05;;
55497;SDS011;41357;52.806;18.268;2022-07-18T08:51:05;4.47;;;1.60;;
55497;SDS011;41357;52.806;18.268;2022-07-18T08:53:31;3.00;;;1.27;;
55497;SDS011;41357;52.806;18.268;2022-07-18T08:55:59;7.20;;;1.95;;
55497;SDS011;41357;52.806;18.268;2022-07-18T08:58:25;3.25;;;1.55;;
55497;SDS011;41357;52.806;18.268;2022-07-18T09:00:51;4.60;;;1.83;;
55497;SDS011;41357;52.806;18.268;2022-07-18T09:03:17;5.85;;;1.48;;
55497;SDS011;41357;52.806;18.268;2022-07-18T09:05:44;7.00;;;2.17;;
55497;SDS011;41357;52.806;18.268;2022-07-18T09:08:17;7.10;;;1.25;;
55497;SDS011;41357;52.806;18.268;2022-07-18T09:13:17;2.70;;;1.77;;
55497;SDS011;41357;52.806;18.268;2022-07-18T09:18:32;5.80;;;1.48;;
55497;SDS011;41357;52.806;18.268;2022-07-18T09:20:59;4.88;;;1.77;;
55497;SDS011;41357;52.806;18.268;2022-07-18T09:23:27;3.40;;;1.50;;
55497;SDS011;41357;52.806;18.268;2022-07-18T09:25:53;2.33;;;1.50;;
55497;SDS011;41357;52.806;18.268;2022-07-18T09:28:19;9.35;;;2.13;;
55497;SDS011;41357;52.806;18.268;2022-07-18T09:30:45;5.50;;;2.22;;
55497;SDS011;41357;52.806;18.268;2022-07-18T09:33:12;3.78;;;1.63;;
55497;SDS011;41357;52.806;18.268;2022-07-18T09:35:45;6.13;;;1.80;;
55497;SDS011;41357;52.806;18.268;2022-07-18T09:38:13;6.18;;;1.52;;
55497;SDS011;41357;52.806;18.268;2022-07-18T09:40:43;6.65;;;1.50;;
55497;SDS011;41357;52.806;18.268;2022-07-18T09:43:11;5.00;;;1.73;;
55497;SDS011;41357;52.806;18.268;2022-07-18T09:45:38;5.00;;;1.35;;
55497;SDS011;41357;52.806;18.268;2022-07-18T09:48:06;6.70;;;1.70;;
55497;SDS011;41357;52.806;18.268;2022-07-18T09:50:36;3.50;;;1.65;;
55497;SDS011;41357;52.806;18.268;2022-07-18T09:55:29;5.43;;;1.55;;
55497;SDS011;41357;52.806;18.268;2022-07-18T09:57:56;2.95;;;1.60;;
55497;SDS011;41357;52.806;18.268;2022-07-18T10:00:24;4.60;;;1.40;;
55497;SDS011;41357;52.806;18.268;2022-07-18T10:02:50;6.32;;;1.50;;
55497;SDS011;41357;52.806;18.268;2022-07-18T10:05:16;4.10;;;1.70;;
55497;SDS011;41357;52.806;18.268;2022-07-18T10:07:43;4.40;;;1.60;;
55497;SDS011;41357;52.806;18.268;2022-07-18T10:10:11;3.15;;;1.60;;
55497;SDS011;41357;52.806;18.268;2022-07-18T10:12:40;5.50;;;1.63;;
55497;SDS011;41357;52.806;18.268;2022-07-18T10:15:06;4.28;;;1.50;;
55497;SDS011;41357;52.806;18.268;2022-07-18T10:17:33;3.67;;;1.60;;
55497;SDS011;41357;52.806;18.268;2022-07-18T10:20:03;4.07;;;1.50;;
55497;SDS011;41357;52.806;18.268;2022-07-18T10:22:33;3.92;;;1.50;;
55497;SDS011;41357;52.806;18.268;2022-07-18T10:25:04;2.33;;;1.33;;
55497;SDS011;41357;52.806;18.268;2022-07-18T10:30:15;4.10;;;1.77;;
55497;SDS011;41357;52.806;18.268;2022-07-18T10:32:42;3.33;;;1.45;;
55497;SDS011;41357;52.806;18.268;2022-07-18T10:35:09;3.30;;;1.52;;
55497;SDS011;41357;52.806;18.268;2022-07-18T10:37:38;5.83;;;1.83;;
55497;SDS011;41357;52.806;18.268;2022-07-18T10:45:46;5.78;;;1.65;;
55497;SDS011;41357;52.806;18.268;2022-07-18T10:51:01;8.85;;;2.58;;
55497;SDS011;41357;52.806;18.268;2022-07-18T10:56:11;3.22;;;1.42;;
55497;SDS011;41357;52.806;18.268;2022-07-18T10:58:38;6.15;;;1.40;;
55497;SDS011;41357;52.806;18.268;2022-07-18T11:01:05;3.15;;;1.73;;
55497;SDS011;41357;52.806;18.268;2022-07-18T11:03:36;5.43;;;2.03;;
55497;SDS011;41357;52.806;18.268;2022-07-18T11:06:02;3.83;;;1.67;;
55497;SDS011;41357;52.806;18.268;2022-07-18T11:08:31;3.78;;;1.55;;
55497;SDS011;41357;52.806;18.268;2022-07-18T11:18:20;4.28;;;1.52;;
55497;SDS011;41357;52.806;18.268;2022-07-18T11:20:46;2.65;;;1.45;;
55497;SDS011;41357;52.806;18.268;2022-07-18T11:23:20;4.40;;;1.65;;
55497;SDS011;41357;52.806;18.268;2022-07-18T11:25:47;5.28;;;1.50;;
55497;SDS011;41357;52.806;18.268;2022-07-18T11:28:13;5.43;;;1.60;;
55497;SDS011;41357;52.806;18.268;2022-07-18T11:30:40;6.07;;;1.35;;
55497;SDS011;41357;52.806;18.268;2022-07-18T11:33:07;5.10;;;1.60;;
55497;SDS011;41357;52.806;18.268;2022-07-18T11:35:46;7.07;;;1.98;;
55497;SDS011;41357;52.806;18.268;2022-07-18T11:38:12;4.30;;;1.63;;
55497;SDS011;41357;52.806;18.268;2022-07-18T11:40:51;3.70;;;1.92;;
55497;SDS011;41357;52.806;18.268;2022-07-18T11:43:21;3.95;;;1.50;;
55497;SDS011;41357;52.806;18.268;2022-07-18T11:45:47;4.78;;;1.67;;
55497;SDS011;41357;52.806;18.268;2022-07-18T11:48:20;7.65;;;1.77;;
55497;SDS011;41357;52.806;18.268;2022-07-18T11:50:47;6.68;;;1.40;;
55497;SDS011;41357;52.806;18.268;2022-07-18T11:53:13;2.70;;;1.50;;
55497;SDS011;41357;52.806;18.268;2022-07-18T11:55:40;5.63;;;1.35;;
55497;SDS011;41357;52.806;18.268;2022-07-18T11:58:07;4.45;;;1.45;;
55497;SDS011;41357;52.806;18.268;2022-07-18T12:00:33;3.38;;;1.40;;
55497;SDS011;41357;52.806;18.268;2022-07-18T12:03:03;4.32;;;1.25;;
55497;SDS011;41357;52.806;18.268;2022-07-18T12:05:33;5.00;;;1.33;;
55497;SDS011;41357;52.806;18.268;2022-07-18T12:08:00;4.30;;;1.95;;
55497;SDS011;41357;52.806;18.268;2022-07-18T12:10:26;4.82;;;1.40;;
55497;SDS011;41357;52.806;18.268;2022-07-18T12:12:53;7.97;;;1.60;;
55497;SDS011;41357;52.806;18.268;2022-07-18T12:15:19;5.68;;;1.75;;
55497;SDS011;41357;52.806;18.268;2022-07-18T12:17:46;4.40;;;1.48;;
55497;SDS011;41357;52.806;18.268;2022-07-18T12:20:13;2.63;;;1.10;;
55497;SDS011;41357;52.806;18.268;2022-07-18T12:25:36;3.25;;;1.40;;
55497;SDS011;41357;52.806;18.268;2022-07-18T12:28:16;3.85;;;1.30;;
55497;SDS011;41357;52.806;18.268;2022-07-18T12:30:43;10.50;;;1.67;;
55497;SDS011;41357;52.806;18.268;2022-07-18T12:33:09;4.93;;;2.22;;
55497;SDS011;41357;52.806;18.268;2022-07-18T12:35:36;4.93;;;2.05;;
55497;SDS011;41357;52.806;18.268;2022-07-18T12:38:04;4.38;;;1.50;;
55497;SDS011;41357;52.806;18.268;2022-07-18T12:43:33;5.82;;;1.45;;
55497;SDS011;41357;52.806;18.268;2022-07-18T12:46:01;4.50;;;1.50;;
55497;SDS011;41357;52.806;18.268;2022-07-18T12:48:28;3.83;;;1.35;;
55497;SDS011;41357;52.806;18.268;2022-07-18T12:50:55;5.45;;;1.48;;
55497;SDS011;41357;52.806;18.268;2022-07-18T12:53:22;7.40;;;1.30;;
55497;SDS011;41357;52.806;18.268;2022-07-18T12:55:49;6.00;;;1.92;;
55497;SDS011;41357;52.806;18.268;2022-07-18T12:58:15;3.70;;;1.63;;
55497;SDS011;41357;52.806;18.268;2022-07-18T13:00:41;4.80;;;1.52;;
55497;SDS011;41357;52.806;18.268;2022-07-18T13:03:09;5.85;;;1.50;;
55497;SDS011;41357;52.806;18.268;2022-07-18T13:05:35;5.05;;;1.77;;
55497;SDS011;41357;52.806;18.268;2022-07-18T13:08:01;7.28;;;2.03;;
55497;SDS011;41357;52.806;18.268;2022-07-18T13:10:27;3.60;;;1.50;;
55497;SDS011;41357;52.806;18.268;2022-07-18T13:12:54;5.90;;;1.52;;
55497;SDS011;41357;52.806;18.268;2022-07-18T13:15:21;6.65;;;1.65;;
55497;SDS011;41357;52.806;18.268;2022-07-18T13:17:47;4.22;;;1.48;;
55497;SDS011;41357;52.806;18.268;2022-07-18T13:20:16;5.53;;;1.70;;
55497;SDS011;41357;52.806;18.268;2022-07-18T13:22:43;6.80;;;1.70;;
55497;SDS011;41357;52.806;18.268;2022-07-18T13:25:09;4.45;;;1.10;;
55497;SDS011;41357;52.806;18.268;2022-07-18T13:27:36;4.70;;;1.60;;
55497;SDS011;41357;52.806;18.268;2022-07-18T13:30:03;7.13;;;1.48;;
55497;SDS011;41357;52.806;18.268;2022-07-18T13:32:29;5.18;;;1.48;;
55497;SDS011;41357;52.806;18.268;2022-07-18T13:34:56;7.00;;;1.70;;
55497;SDS011;41357;52.806;18.268;2022-07-18T13:37:22;5.60;;;1.50;;
55497;SDS011;41357;52.806;18.268;2022-07-18T13:39:49;5.10;;;1.60;;
55497;SDS011;41357;52.806;18.268;2022-07-18T13:42:15;3.08;;;1.40;;
55497;SDS011;41357;52.806;18.268;2022-07-18T13:44:42;2.85;;;1.40;;
55497;SDS011;41357;52.806;18.268;2022-07-18T13:47:10;2.65;;;1.65;;
55497;SDS011;41357;52.806;18.268;2022-07-18T13:49:36;5.15;;;1.55;;
55497;SDS011;41357;52.806;18.268;2022-07-18T13:52:02;4.53;;;1.50;;
55497;SDS011;41357;52.806;18.268;2022-07-18T13:54:29;4.07;;;1.52;;
55497;SDS011;41357;52.806;18.268;2022-07-18T13:56:55;2.95;;;1.13;;
55497;SDS011;41357;52.806;18.268;2022-07-18T13:59:21;4.28;;;1.30;;
55497;SDS011;41357;52.806;18.268;2022-07-18T14:01:47;5.97;;;1.95;;
55497;SDS011;41357;52.806;18.268;2022-07-18T14:04:14;7.95;;;1.65;;
55497;SDS011;41357;52.806;18.268;2022-07-18T14:06:41;3.17;;;1.38;;
55497;SDS011;41357;52.806;18.268;2022-07-18T14:09:07;9.75;;;1.98;;
55497;SDS011;41357;52.806;18.268;2022-07-18T14:11:33;2.25;;;1.05;;
55497;SDS011;41357;52.806;18.268;2022-07-18T14:14:03;2.85;;;1.42;;
55497;SDS011;41357;52.806;18.268;2022-07-18T14:16:29;4.53;;;1.10;;
55497;SDS011;41357;52.806;18.268;2022-07-18T14:18:56;3.72;;;1.88;;
55497;SDS011;41357;52.806;18.268;2022-07-18T14:21:22;4.18;;;1.60;;
55497;SDS011;41357;52.806;18.268;2022-07-18T14:23:49;3.17;;;1.33;;
55497;SDS011;41357;52.806;18.268;2022-07-18T14:26:15;2.70;;;1.38;;
55497;SDS011;41357;52.806;18.268;2022-07-18T14:28:41;5.95;;;1.70;;
55497;SDS011;41357;52.806;18.268;2022-07-18T14:31:08;5.03;;;1.92;;
55497;SDS011;41357;52.806;18.268;2022-07-18T14:33:34;3.80;;;1.60;;
55497;SDS011;41357;52.806;18.268;2022-07-18T14:36:00;5.30;;;1.60;;
55497;SDS011;41357;52.806;18.268;2022-07-18T14:38:26;4.18;;;2.03;;
55497;SDS011;41357;52.806;18.268;2022-07-18T14:40:52;2.45;;;1.40;;
55497;SDS011;41357;52.806;18.268;2022-07-18T14:43:19;3.25;;;1.27;;
55497;SDS011;41357;52.806;18.268;2022-07-18T14:45:45;7.13;;;1.63;;
55497;SDS011;41357;52.806;18.268;2022-07-18T14:48:11;6.13;;;1.70;;
55497;SDS011;41357;52.806;18.268;2022-07-18T14:50:37;2.05;;;1.30;;
55497;SDS011;41357;52.806;18.268;2022-07-18T14:53:03;1.90;;;1.38;;
55497;SDS011;41357;52.806;18.268;2022-07-18T14:55:29;3.17;;;1.50;;
55497;SDS011;41357;52.806;18.268;2022-07-18T14:57:55;5.82;;;1.40;;
55497;SDS011;41357;52.806;18.268;2022-07-18T15:00:22;7.30;;;1.67;;
55497;SDS011;41357;52.806;18.268;2022-07-18T15:02:48;1.80;;;1.13;;
55497;SDS011;41357;52.806;18.268;2022-07-18T15:05:14;2.70;;;1.27;;
55497;SDS011;41357;52.806;18.268;2022-07-18T15:07:41;2.33;;;1.50;;